sensor_id;sensor_type;location;lat;lon;timestamp;pressure;altitude;pressure_sealevel;temperature;humidity
74230;BME280;62589;12.568;99.958;2023-05-20T00:01:46;100518.91;;;35.42;44.54
74230;BME280;62589;12.568;99.958;2023-05-20T00:04:32;100512.09;;;35.47;44.60
74230;BME280;62589;12.568;99.958;2023-05-20T00:07:19;100516.84;;;35.54;43.91
74230;BME280;62589;12.568;99.958;2023-05-20T00:10:05;100517.56;;;35.58;43.49
74230;BME280;62589;12.568;99.958;2023-05-20T00:12:31;100518.34;;;35.62;43.31
74230;BME280;62589;12.568;99.958;2023-05-20T00:15:00;100517.09;;;35.66;43.60
74230;BME280;62589;12.568;99.958;2023-05-20T00:17:27;100530.63;;;35.71;43.49
74230;BME280;62589;12.568;99.958;2023-05-20T00:19:53;100538.16;;;35.78;43.49
74230;BME280;62589;12.568;99.958;2023-05-20T00:22:20;100532.53;;;35.81;43.34
74230;BME280;62589;12.568;99.958;2023-05-20T00:28:12;100545.13;;;35.97;43.19
74230;BME280;62589;12.568;99.958;2023-05-20T00:30:39;100551.09;;;35.99;43.71
74230;BME280;62589;12.568;99.958;2023-05-20T00:33:06;100549.88;;;36.03;43.60
74230;BME280;62589;12.568;99.958;2023-05-20T00:35:33;100557.81;;;36.08;43.57
74230;BME280;62589;12.568;99.958;2023-05-20T00:37:59;100557.75;;;36.12;42.98
74230;BME280;62589;12.568;99.958;2023-05-20T00:40:26;100556.88;;;36.19;42.81
74230;BME280;62589;12.568;99.958;2023-05-20T00:42:53;100563.63;;;36.25;42.62
74230;BME280;62589;12.568;99.958;2023-05-20T00:45:19;100573.56;;;36.29;42.48
74230;BME280;62589;12.568;99.958;2023-05-20T00:47:46;100575.91;;;36.34;42.71
74230;BME280;62589;12.568;99.958;2023-05-20T00:50:32;100582.59;;;36.40;42.52
74230;BME280;62589;12.568;99.958;2023-05-20T00:52:59;100586.94;;;36.45;41.76
74230;BME280;62589;12.568;99.958;2023-05-20T00:55:25;100586.88;;;36.52;41.87
74230;BME280;62589;12.568;99.958;2023-05-20T00:57:52;100591.22;;;36.57;41.66
74230;BME280;62589;12.568;99.958;2023-05-20T01:00:39;100599.91;;;36.62;41.59
74230;BME280;62589;12.568;99.958;2023-05-20T01:03:25;100597.88;;;36.66;41.45
74230;BME280;62589;12.568;99.958;2023-05-20T01:06:11;100603.44;;;36.70;41.16
74230;BME280;62589;12.568;99.958;2023-05-20T01:08:37;100617.38;;;36.77;41.26
74230;BME280;62589;12.568;99.958;2023-05-20T01:11:33;100610.56;;;36.78;40.74
74230;BME280;62589;12.568;99.958;2023-05-20T01:14:25;100636.38;;;36.89;40.63
74230;BME280;62589;12.568;99.958;2023-05-20T01:17:13;100629.94;;;36.92;40.73
74230;BME280;62589;12.568;99.958;2023-05-20T01:20:18;100634.59;;;37.02;40.39
74230;BME280;62589;12.568;99.958;2023-05-20T01:22:48;100631.38;;;37.04;40.44
74230;BME280;62589;12.568;99.958;2023-05-20T01:25:34;100637.25;;;37.13;40.30
74230;BME280;62589;12.568;99.958;2023-05-20T01:28:01;100626.00;;;37.16;40.33
74230;BME280;62589;12.568;99.958;2023-05-20T01:30:38;100631.59;;;37.20;39.99
74230;BME280;62589;12.568;99.958;2023-05-20T01:36:30;100626.56;;;37.35;39.98
74230;BME280;62589;12.568;99.958;2023-05-20T01:53:58;100655.81;;;37.57;37.63
74230;BME280;62589;12.568;99.958;2023-05-20T01:56:25;100649.72;;;37.62;37.72
74230;BME280;62589;12.568;99.958;2023-05-20T01:58:51;100647.28;;;37.64;38.01
74230;BME280;62589;12.568;99.958;2023-05-20T02:01:18;100651.31;;;37.63;36.99
74230;BME280;62589;12.568;99.958;2023-05-20T02:03:44;100634.41;;;37.70;37.43
74230;BME280;62589;12.568;99.958;2023-05-20T02:06:10;100644.72;;;37.77;37.80
74230;BME280;62589;12.568;99.958;2023-05-20T02:08:37;100644.25;;;37.82;37.95
74230;BME280;62589;12.568;99.958;2023-05-20T02:11:03;100652.94;;;37.88;38.14
74230;BME280;62589;12.568;99.958;2023-05-20T02:13:30;100642.84;;;37.94;37.35
74230;BME280;62589;12.568;99.958;2023-05-20T02:15:56;100657.16;;;37.99;37.89
74230;BME280;62589;12.568;99.958;2023-05-20T02:18:22;100655.09;;;38.03;37.45
74230;BME280;62589;12.568;99.958;2023-05-20T02:20:51;100649.03;;;38.05;36.62
74230;BME280;62589;12.568;99.958;2023-05-20T02:23:18;100654.97;;;38.10;36.35
74230;BME280;62589;12.568;99.958;2023-05-20T02:25:44;100656.88;;;38.17;37.05
74230;BME280;62589;12.568;99.958;2023-05-20T02:28:11;100653.22;;;38.20;37.37
74230;BME280;62589;12.568;99.958;2023-05-20T02:30:37;100659.88;;;38.26;37.12
74230;BME280;62589;12.568;99.958;2023-05-20T02:33:04;100653.34;;;38.33;37.15
74230;BME280;62589;12.568;99.958;2023-05-20T02:35:31;100658.53;;;38.34;36.63
74230;BME280;62589;12.568;99.958;2023-05-20T02:38:01;100658.13;;;38.36;36.31
74230;BME280;62589;12.568;99.958;2023-05-20T02:53:23;100668.72;;;38.68;36.53
74230;BME280;62589;12.568;99.958;2023-05-20T02:55:50;100664.63;;;38.72;36.44
74230;BME280;62589;12.568;99.958;2023-05-20T02:58:17;100667.72;;;38.78;35.46
74230;BME280;62589;12.568;99.958;2023-05-20T03:00:43;100653.56;;;38.85;35.49
74230;BME280;62589;12.568;99.958;2023-05-20T03:03:10;100661.88;;;38.89;34.73
74230;BME280;62589;12.568;99.958;2023-05-20T03:05:38;100660.16;;;38.95;35.58
74230;BME280;62589;12.568;99.958;2023-05-20T03:08:10;100650.06;;;38.97;35.78
74230;BME280;62589;12.568;99.958;2023-05-20T03:10:37;100652.75;;;39.04;35.93
74230;BME280;62589;12.568;99.958;2023-05-20T03:13:05;100649.41;;;39.09;35.58
74230;BME280;62589;12.568;99.958;2023-05-20T03:15:34;100645.66;;;39.16;34.99
74230;BME280;62589;12.568;99.958;2023-05-20T03:18:01;100643.56;;;39.20;34.86
74230;BME280;62589;12.568;99.958;2023-05-20T03:20:27;100641.84;;;39.26;35.57
74230;BME280;62589;12.568;99.958;2023-05-20T03:22:55;100638.50;;;39.31;35.30
74230;BME280;62589;12.568;99.958;2023-05-20T03:25:22;100638.75;;;39.37;35.54
74230;BME280;62589;12.568;99.958;2023-05-20T03:27:49;100643.44;;;39.43;36.21
74230;BME280;62589;12.568;99.958;2023-05-20T03:30:16;100639.03;;;39.42;36.15
74230;BME280;62589;12.568;99.958;2023-05-20T03:32:42;100643.72;;;39.49;36.08
74230;BME280;62589;12.568;99.958;2023-05-20T03:35:09;100642.47;;;39.50;36.50
74230;BME280;62589;12.568;99.958;2023-05-20T03:37:35;100638.88;;;39.49;35.96
74230;BME280;62589;12.568;99.958;2023-05-20T03:40:05;100631.72;;;39.48;36.66
74230;BME280;62589;12.568;99.958;2023-05-20T03:42:32;100627.91;;;39.55;36.63
74230;BME280;62589;12.568;99.958;2023-05-20T03:44:59;100613.88;;;39.55;36.41
74230;BME280;62589;12.568;99.958;2023-05-20T03:47:26;100618.44;;;39.49;36.57
74230;BME280;62589;12.568;99.958;2023-05-20T03:49:53;100606.59;;;39.58;35.87
74230;BME280;62589;12.568;99.958;2023-05-20T03:52:20;100615.38;;;39.60;35.91
74230;BME280;62589;12.568;99.958;2023-05-20T03:54:46;100613.78;;;39.59;35.84
74230;BME280;62589;12.568;99.958;2023-05-20T03:57:13;100611.75;;;39.59;35.79
74230;BME280;62589;12.568;99.958;2023-05-20T03:59:40;100625.28;;;39.64;36.37
74230;BME280;62589;12.568;99.958;2023-05-20T04:02:07;100615.28;;;39.63;35.83
74230;BME280;62589;12.568;99.958;2023-05-20T04:04:33;100628.97;;;39.61;36.09
74230;BME280;62589;12.568;99.958;2023-05-20T04:07:01;100635.38;;;39.62;35.85
74230;BME280;62589;12.568;99.958;2023-05-20T04:09:30;100628.19;;;39.61;36.07
74230;BME280;62589;12.568;99.958;2023-05-20T04:11:56;100617.44;;;39.72;36.65
74230;BME280;62589;12.568;99.958;2023-05-20T04:14:23;100615.44;;;39.72;37.04
74230;BME280;62589;12.568;99.958;2023-05-20T04:16:49;100617.13;;;39.70;37.02
74230;BME280;62589;12.568;99.958;2023-05-20T04:19:16;100620.63;;;39.74;37.22
74230;BME280;62589;12.568;99.958;2023-05-20T04:21:46;100616.34;;;39.69;37.06
74230;BME280;62589;12.568;99.958;2023-05-20T04:24:12;100621.06;;;39.72;36.76
74230;BME280;62589;12.568;99.958;2023-05-20T04:26:39;100613.53;;;39.69;36.13
74230;BME280;62589;12.568;99.958;2023-05-20T04:29:05;100614.19;;;39.73;36.53
74230;BME280;62589;12.568;99.958;2023-05-20T04:31:32;100605.78;;;39.73;37.11
74230;BME280;62589;12.568;99.958;2023-05-20T04:33:58;100600.16;;;39.73;36.90
74230;BME280;62589;12.568;99.958;2023-05-20T04:36:25;100598.84;;;39.78;36.97
74230;BME280;62589;12.568;99.958;2023-05-20T04:38:55;100586.88;;;39.74;37.45
74230;BME280;62589;12.568;99.958;2023-05-20T04:41:22;100584.72;;;39.65;37.04
74230;BME280;62589;12.568;99.958;2023-05-20T04:43:49;100578.31;;;39.65;36.89
74230;BME280;62589;12.568;99.958;2023-05-20T04:46:15;100585.94;;;39.64;37.13
74230;BME280;62589;12.568;99.958;2023-05-20T04:48:42;100581.28;;;39.58;35.86
74230;BME280;62589;12.568;99.958;2023-05-20T04:51:12;100586.47;;;39.59;35.86
74230;BME280;62589;12.568;99.958;2023-05-20T04:53:39;100574.44;;;39.59;35.89
74230;BME280;62589;12.568;99.958;2023-05-20T04:56:05;100568.91;;;39.55;35.06
74230;BME280;62589;12.568;99.958;2023-05-20T04:58:33;100571.47;;;39.49;35.14
74230;BME280;62589;12.568;99.958;2023-05-20T05:00:59;100565.22;;;39.42;34.75
74230;BME280;62589;12.568;99.958;2023-05-20T05:03:26;100551.56;;;39.44;34.97
74230;BME280;62589;12.568;99.958;2023-05-20T05:05:55;100555.84;;;39.48;35.43
74230;BME280;62589;12.568;99.958;2023-05-20T05:08:22;100553.38;;;39.50;35.20
74230;BME280;62589;12.568;99.958;2023-05-20T05:10:49;100551.28;;;39.55;35.62
74230;BME280;62589;12.568;99.958;2023-05-20T05:13:15;100541.97;;;39.58;35.66
74230;BME280;62589;12.568;99.958;2023-05-20T05:15:42;100542.41;;;39.56;35.43
74230;BME280;62589;12.568;99.958;2023-05-20T05:18:08;100547.13;;;39.59;35.27
74230;BME280;62589;12.568;99.958;2023-05-20T05:20:35;100551.97;;;39.42;35.13
74230;BME280;62589;12.568;99.958;2023-05-20T05:23:01;100545.84;;;39.47;36.21
74230;BME280;62589;12.568;99.958;2023-05-20T05:25:32;100544.31;;;39.43;35.67
74230;BME280;62589;12.568;99.958;2023-05-20T05:27:58;100541.34;;;39.50;35.23
74230;BME280;62589;12.568;99.958;2023-05-20T05:30:24;100538.44;;;39.37;35.27
74230;BME280;62589;12.568;99.958;2023-05-20T05:32:51;100535.53;;;39.41;34.57
74230;BME280;62589;12.568;99.958;2023-05-20T05:35:18;100523.53;;;39.40;35.54
74230;BME280;62589;12.568;99.958;2023-05-20T05:37:44;100516.50;;;39.32;35.59
74230;BME280;62589;12.568;99.958;2023-05-20T05:40:11;100518.25;;;39.42;36.07
74230;BME280;62589;12.568;99.958;2023-05-20T05:42:37;100513.06;;;39.41;35.88
74230;BME280;62589;12.568;99.958;2023-05-20T05:45:04;100507.63;;;39.34;36.13
74230;BME280;62589;12.568;99.958;2023-05-20T05:47:34;100509.72;;;39.30;36.63
74230;BME280;62589;12.568;99.958;2023-05-20T05:50:01;100513.34;;;39.30;37.35
74230;BME280;62589;12.568;99.958;2023-05-20T05:52:27;100506.13;;;39.29;37.19
74230;BME280;62589;12.568;99.958;2023-05-20T05:54:54;100491.50;;;39.22;37.87
74230;BME280;62589;12.568;99.958;2023-05-20T05:57:20;100483.09;;;39.22;38.13
74230;BME280;62589;12.568;99.958;2023-05-20T05:59:47;100486.16;;;39.27;38.11
74230;BME280;62589;12.568;99.958;2023-05-20T06:02:13;100473.34;;;39.26;38.06
74230;BME280;62589;12.568;99.958;2023-05-20T06:04:40;100470.88;;;39.28;38.48
74230;BME280;62589;12.568;99.958;2023-05-20T06:07:06;100474.22;;;39.23;37.89
74230;BME280;62589;12.568;99.958;2023-05-20T06:09:33;100467.81;;;39.23;37.62
74230;BME280;62589;12.568;99.958;2023-05-20T06:11:59;100472.38;;;39.16;38.01
74230;BME280;62589;12.568;99.958;2023-05-20T06:14:27;100468.25;;;39.21;38.49
74230;BME280;62589;12.568;99.958;2023-05-20T06:16:53;100455.72;;;39.26;37.82
74230;BME280;62589;12.568;99.958;2023-05-20T06:19:20;100449.13;;;39.16;38.35
74230;BME280;62589;12.568;99.958;2023-05-20T06:21:46;100439.13;;;39.15;38.56
74230;BME280;62589;12.568;99.958;2023-05-20T06:24:13;100444.38;;;39.13;38.18
74230;BME280;62589;12.568;99.958;2023-05-20T06:26:39;100445.53;;;39.15;38.17
74230;BME280;62589;12.568;99.958;2023-05-20T06:29:06;100427.97;;;39.11;38.78
74230;BME280;62589;12.568;99.958;2023-05-20T06:31:32;100428.69;;;39.15;39.44
74230;BME280;62589;12.568;99.958;2023-05-20T06:33:58;100414.50;;;39.06;39.27
74230;BME280;62589;12.568;99.958;2023-05-20T06:36:26;100426.16;;;39.05;40.15
74230;BME280;62589;12.568;99.958;2023-05-20T06:38:53;100414.56;;;39.03;39.83
74230;BME280;62589;12.568;99.958;2023-05-20T06:41:20;100408.31;;;38.95;39.20
74230;BME280;62589;12.568;99.958;2023-05-20T06:43:47;100408.19;;;39.02;39.79
74230;BME280;62589;12.568;99.958;2023-05-20T06:46:13;100413.16;;;39.11;39.22
74230;BME280;62589;12.568;99.958;2023-05-20T06:48:40;100410.09;;;39.05;39.60
74230;BME280;62589;12.568;99.958;2023-05-20T06:51:07;100409.47;;;39.14;39.41
74230;BME280;62589;12.568;99.958;2023-05-20T06:53:35;100407.66;;;39.07;39.73
74230;BME280;62589;12.568;99.958;2023-05-20T06:56:02;100405.44;;;39.15;39.92
74230;BME280;62589;12.568;99.958;2023-05-20T06:58:28;100406.31;;;39.12;39.86
74230;BME280;62589;12.568;99.958;2023-05-20T07:00:55;100405.28;;;39.06;39.90
74230;BME280;62589;12.568;99.958;2023-05-20T07:03:22;100413.84;;;38.99;40.00
74230;BME280;62589;12.568;99.958;2023-05-20T07:05:49;100412.34;;;38.94;40.03
74230;BME280;62589;12.568;99.958;2023-05-20T07:08:16;100407.19;;;38.93;40.55
74230;BME280;62589;12.568;99.958;2023-05-20T07:10:42;100403.56;;;38.92;40.29
74230;BME280;62589;12.568;99.958;2023-05-20T07:13:09;100394.81;;;38.90;40.43
74230;BME280;62589;12.568;99.958;2023-05-20T07:15:36;100393.44;;;38.82;40.39
74230;BME280;62589;12.568;99.958;2023-05-20T07:18:03;100392.44;;;38.89;40.48
74230;BME280;62589;12.568;99.958;2023-05-20T07:20:29;100390.28;;;38.80;41.16
74230;BME280;62589;12.568;99.958;2023-05-20T07:22:56;100386.94;;;38.85;41.14
74230;BME280;62589;12.568;99.958;2023-05-20T07:25:22;100393.75;;;38.68;41.00
74230;BME280;62589;12.568;99.958;2023-05-20T07:27:49;100388.84;;;38.72;40.91
74230;BME280;62589;12.568;99.958;2023-05-20T07:30:15;100383.94;;;38.76;40.98
74230;BME280;62589;12.568;99.958;2023-05-20T07:32:41;100380.97;;;38.67;40.75
74230;BME280;62589;12.568;99.958;2023-05-20T07:35:08;100386.84;;;38.56;40.91
74230;BME280;62589;12.568;99.958;2023-05-20T07:37:34;100384.81;;;38.57;40.93
74230;BME280;62589;12.568;99.958;2023-05-20T07:40:01;100381.59;;;38.58;41.14
74230;BME280;62589;12.568;99.958;2023-05-20T07:42:27;100372.44;;;38.54;41.02
74230;BME280;62589;12.568;99.958;2023-05-20T07:44:54;100370.22;;;38.45;41.63
74230;BME280;62589;12.568;99.958;2023-05-20T07:47:20;100367.22;;;38.56;41.42
74230;BME280;62589;12.568;99.958;2023-05-20T07:49:47;100363.63;;;38.56;41.15
74230;BME280;62589;12.568;99.958;2023-05-20T07:52:13;100369.94;;;38.60;41.14
74230;BME280;62589;12.568;99.958;2023-05-20T07:54:40;100358.41;;;38.54;41.31
74230;BME280;62589;12.568;99.958;2023-05-20T07:57:06;100356.34;;;38.58;41.53
74230;BME280;62589;12.568;99.958;2023-05-20T07:59:33;100354.19;;;38.46;41.10
74230;BME280;62589;12.568;99.958;2023-05-20T08:01:59;100336.41;;;38.53;41.23
74230;BME280;62589;12.568;99.958;2023-05-20T08:04:26;100338.06;;;38.50;41.19
74230;BME280;62589;12.568;99.958;2023-05-20T08:06:53;100334.03;;;38.51;41.50
74230;BME280;62589;12.568;99.958;2023-05-20T08:09:19;100319.84;;;38.42;41.06
74230;BME280;62589;12.568;99.958;2023-05-20T08:11:46;100314.13;;;38.29;40.84
74230;BME280;62589;12.568;99.958;2023-05-20T08:14:13;100318.63;;;38.43;41.15
74230;BME280;62589;12.568;99.958;2023-05-20T08:16:40;100319.94;;;38.38;41.79
74230;BME280;62589;12.568;99.958;2023-05-20T08:19:07;100315.56;;;38.37;41.84
74230;BME280;62589;12.568;99.958;2023-05-20T08:21:33;100319.94;;;38.38;41.37
74230;BME280;62589;12.568;99.958;2023-05-20T08:24:00;100310.22;;;38.43;41.86
74230;BME280;62589;12.568;99.958;2023-05-20T08:26:26;100316.00;;;38.36;42.31
74230;BME280;62589;12.568;99.958;2023-05-20T08:28:53;100315.03;;;38.42;41.99
74230;BME280;62589;12.568;99.958;2023-05-20T08:31:19;100303.19;;;38.35;41.72
74230;BME280;62589;12.568;99.958;2023-05-20T08:33:49;100296.63;;;38.41;41.82
74230;BME280;62589;12.568;99.958;2023-05-20T08:36:15;100287.06;;;38.39;41.65
74230;BME280;62589;12.568;99.958;2023-05-20T08:38:44;100294.88;;;38.31;42.43
74230;BME280;62589;12.568;99.958;2023-05-20T08:41:10;100292.41;;;38.33;41.73
74230;BME280;62589;12.568;99.958;2023-05-20T08:43:37;100283.47;;;38.38;41.99
74230;BME280;62589;12.568;99.958;2023-05-20T08:46:03;100287.16;;;38.35;41.94
74230;BME280;62589;12.568;99.958;2023-05-20T08:48:32;100287.69;;;38.30;42.19
74230;BME280;62589;12.568;99.958;2023-05-20T08:51:02;100287.31;;;38.28;42.82
74230;BME280;62589;12.568;99.958;2023-05-20T08:53:29;100281.72;;;38.28;42.80
74230;BME280;62589;12.568;99.958;2023-05-20T08:55:59;100282.78;;;38.18;42.71
74230;BME280;62589;12.568;99.958;2023-05-20T08:58:28;100281.56;;;38.19;43.33
74230;BME280;62589;12.568;99.958;2023-05-20T09:00:55;100275.59;;;38.17;43.16
74230;BME280;62589;12.568;99.958;2023-05-20T09:03:23;100275.94;;;38.19;43.36
74230;BME280;62589;12.568;99.958;2023-05-20T09:05:52;100279.09;;;38.21;43.31
74230;BME280;62589;12.568;99.958;2023-05-20T09:08:23;100276.97;;;38.25;42.77
74230;BME280;62589;12.568;99.958;2023-05-20T09:10:51;100282.59;;;38.25;42.89
74230;BME280;62589;12.568;99.958;2023-05-20T09:13:19;100288.19;;;38.25;43.03
74230;BME280;62589;12.568;99.958;2023-05-20T09:15:45;100287.75;;;38.27;42.97
74230;BME280;62589;12.568;99.958;2023-05-20T09:18:12;100281.56;;;38.19;43.08
74230;BME280;62589;12.568;99.958;2023-05-20T09:20:38;100278.31;;;38.21;43.36
74230;BME280;62589;12.568;99.958;2023-05-20T09:23:08;100273.09;;;38.03;43.64
74230;BME280;62589;12.568;99.958;2023-05-20T09:25:35;100269.75;;;37.92;44.41
74230;BME280;62589;12.568;99.958;2023-05-20T09:28:05;100273.69;;;37.94;44.16
74230;BME280;62589;12.568;99.958;2023-05-20T09:30:32;100261.69;;;37.94;44.59
74230;BME280;62589;12.568;99.958;2023-05-20T09:33:02;100269.75;;;37.92;44.65
74230;BME280;62589;12.568;99.958;2023-05-20T09:35:29;100262.56;;;37.91;44.97
74230;BME280;62589;12.568;99.958;2023-05-20T09:37:57;100268.69;;;37.86;45.95
74230;BME280;62589;12.568;99.958;2023-05-20T09:40:28;100270.63;;;37.89;45.70
74230;BME280;62589;12.568;99.958;2023-05-20T09:43:01;100277.78;;;37.90;45.67
74230;BME280;62589;12.568;99.958;2023-05-20T09:45:28;100271.31;;;37.93;45.05
74230;BME280;62589;12.568;99.958;2023-05-20T09:47:55;100281.47;;;37.87;45.59
74230;BME280;62589;12.568;99.958;2023-05-20T09:50:23;100270.50;;;37.76;45.37
74230;BME280;62589;12.568;99.958;2023-05-20T09:52:52;100276.72;;;37.83;45.30
74230;BME280;62589;12.568;99.958;2023-05-20T09:55:21;100275.94;;;37.83;45.61
74230;BME280;62589;12.568;99.958;2023-05-20T09:57:47;100282.78;;;37.82;45.75
74230;BME280;62589;12.568;99.958;2023-05-20T10:00:15;100276.41;;;37.81;45.20
74230;BME280;62589;12.568;99.958;2023-05-20T10:02:48;100278.06;;;37.79;44.80
74230;BME280;62589;12.568;99.958;2023-05-20T10:05:21;100281.88;;;37.69;45.20
74230;BME280;62589;12.568;99.958;2023-05-20T10:08:21;100281.09;;;37.84;44.93
74230;BME280;62589;12.568;99.958;2023-05-20T10:17:09;100282.00;;;37.81;44.64
74230;BME280;62589;12.568;99.958;2023-05-20T10:19:39;100291.50;;;37.68;44.80
74230;BME280;62589;12.568;99.958;2023-05-20T10:22:07;100296.78;;;37.62;45.24
74230;BME280;62589;12.568;99.958;2023-05-20T10:24:39;100303.13;;;37.66;45.16
74230;BME280;62589;12.568;99.958;2023-05-20T10:27:13;100303.50;;;37.68;45.66
74230;BME280;62589;12.568;99.958;2023-05-20T10:29:53;100313.94;;;37.64;45.42
74230;BME280;62589;12.568;99.958;2023-05-20T10:32:29;100311.47;;;37.70;45.10
74230;BME280;62589;12.568;99.958;2023-05-20T10:35:02;100312.75;;;37.65;45.42
74230;BME280;62589;12.568;99.958;2023-05-20T10:37:32;100322.31;;;37.68;45.20
74230;BME280;62589;12.568;99.958;2023-05-20T10:40:11;100332.72;;;37.67;44.84
74230;BME280;62589;12.568;99.958;2023-05-20T10:42:39;100338.97;;;37.55;45.46
74230;BME280;62589;12.568;99.958;2023-05-20T10:45:06;100338.88;;;37.59;45.62
74230;BME280;62589;12.568;99.958;2023-05-20T10:47:34;100337.44;;;37.50;45.89
74230;BME280;62589;12.568;99.958;2023-05-20T10:50:01;100333.84;;;37.50;46.24
74230;BME280;62589;12.568;99.958;2023-05-20T10:52:33;100338.59;;;37.53;46.19
74230;BME280;62589;12.568;99.958;2023-05-20T10:55:01;100342.97;;;37.54;46.67
74230;BME280;62589;12.568;99.958;2023-05-20T10:57:30;100346.56;;;37.55;46.48
74230;BME280;62589;12.568;99.958;2023-05-20T10:59:57;100357.59;;;37.42;46.83
74230;BME280;62589;12.568;99.958;2023-05-20T11:02:25;100352.66;;;37.49;47.24
74230;BME280;62589;12.568;99.958;2023-05-20T11:04:55;100351.53;;;37.47;46.88
74230;BME280;62589;12.568;99.958;2023-05-20T11:07:27;100343.13;;;37.47;47.15
74230;BME280;62589;12.568;99.958;2023-05-20T11:09:57;100342.38;;;37.43;47.16
74230;BME280;62589;12.568;99.958;2023-05-20T11:12:25;100353.16;;;37.44;47.84
74230;BME280;62589;12.568;99.958;2023-05-20T11:14:52;100365.94;;;37.45;48.18
74230;BME280;62589;12.568;99.958;2023-05-20T11:17:19;100368.03;;;37.41;48.80
74230;BME280;62589;12.568;99.958;2023-05-20T11:19:46;100375.13;;;37.46;48.91
74230;BME280;62589;12.568;99.958;2023-05-20T11:22:13;100373.19;;;37.43;49.27
74230;BME280;62589;12.568;99.958;2023-05-20T11:24:40;100365.81;;;37.33;50.25
74230;BME280;62589;12.568;99.958;2023-05-20T11:27:06;100369.28;;;37.40;50.12
74230;BME280;62589;12.568;99.958;2023-05-20T11:29:33;100379.09;;;37.48;49.98
74230;BME280;62589;12.568;99.958;2023-05-20T11:32:00;100386.34;;;37.46;49.87
74230;BME280;62589;12.568;99.958;2023-05-20T11:34:35;100386.69;;;37.48;49.61
74230;BME280;62589;12.568;99.958;2023-05-20T11:37:06;100396.13;;;37.38;50.02
74230;BME280;62589;12.568;99.958;2023-05-20T11:39:33;100396.75;;;37.45;49.37
74230;BME280;62589;12.568;99.958;2023-05-20T11:42:00;100390.00;;;37.43;49.62
74230;BME280;62589;12.568;99.958;2023-05-20T11:44:26;100393.59;;;37.43;50.08
74230;BME280;62589;12.568;99.958;2023-05-20T11:47:02;100386.88;;;37.41;50.06
74230;BME280;62589;12.568;99.958;2023-05-20T11:49:28;100390.72;;;37.47;49.79
74230;BME280;62589;12.568;99.958;2023-05-20T11:51:56;100381.53;;;37.46;49.89
74230;BME280;62589;12.568;99.958;2023-05-20T11:54:23;100397.97;;;37.44;50.25
74230;BME280;62589;12.568;99.958;2023-05-20T11:56:52;100396.31;;;37.47;49.75
74230;BME280;62589;12.568;99.958;2023-05-20T11:59:19;100401.13;;;37.46;49.41
74230;BME280;62589;12.568;99.958;2023-05-20T12:01:45;100393.09;;;37.48;49.77
74230;BME280;62589;12.568;99.958;2023-05-20T12:04:12;100407.09;;;37.48;49.59
74230;BME280;62589;12.568;99.958;2023-05-20T12:09:14;100420.38;;;37.44;50.19
74230;BME280;62589;12.568;99.958;2023-05-20T12:11:41;100426.69;;;37.48;49.83
74230;BME280;62589;12.568;99.958;2023-05-20T12:14:09;100429.94;;;37.47;50.23
74230;BME280;62589;12.568;99.958;2023-05-20T12:16:36;100425.06;;;37.51;50.26
74230;BME280;62589;12.568;99.958;2023-05-20T12:19:03;100438.63;;;37.53;50.05
74230;BME280;62589;12.568;99.958;2023-05-20T12:21:30;100439.84;;;37.52;50.06
74230;BME280;62589;12.568;99.958;2023-05-20T12:23:58;100444.22;;;37.53;49.68
74230;BME280;62589;12.568;99.958;2023-05-20T12:26:26;100442.22;;;37.53;49.75
74230;BME280;62589;12.568;99.958;2023-05-20T12:28:53;100442.22;;;37.53;49.12
74230;BME280;62589;12.568;99.958;2023-05-20T12:31:20;100442.59;;;37.55;48.89
74230;BME280;62589;12.568;99.958;2023-05-20T12:33:46;100437.34;;;37.57;48.83
74230;BME280;62589;12.568;99.958;2023-05-20T12:36:13;100442.94;;;37.57;48.79
74230;BME280;62589;12.568;99.958;2023-05-20T12:38:40;100442.53;;;37.59;48.76
74230;BME280;62589;12.568;99.958;2023-05-20T12:41:06;100446.91;;;37.60;48.39
74230;BME280;62589;12.568;99.958;2023-05-20T12:43:34;100450.63;;;37.53;48.36
74230;BME280;62589;12.568;99.958;2023-05-20T12:46:02;100455.44;;;37.53;47.83
74230;BME280;62589;12.568;99.958;2023-05-20T12:48:28;100456.22;;;37.53;47.78
74230;BME280;62589;12.568;99.958;2023-05-20T12:50:55;100457.44;;;37.52;48.13
74230;BME280;62589;12.568;99.958;2023-05-20T12:53:21;100469.81;;;37.55;47.45
74230;BME280;62589;12.568;99.958;2023-05-20T12:55:47;100467.38;;;37.57;47.58
74230;BME280;62589;12.568;99.958;2023-05-20T12:58:14;100480.94;;;37.58;47.49
74230;BME280;62589;12.568;99.958;2023-05-20T13:00:40;100481.75;;;37.59;47.39
74230;BME280;62589;12.568;99.958;2023-05-20T13:03:07;100489.72;;;37.60;47.12
74230;BME280;62589;12.568;99.958;2023-05-20T13:05:33;100492.09;;;37.62;47.19
74230;BME280;62589;12.568;99.958;2023-05-20T13:07:59;100493.31;;;37.61;47.01
74230;BME280;62589;12.568;99.958;2023-05-20T13:10:26;100506.09;;;37.62;46.89
74230;BME280;62589;12.568;99.958;2023-05-20T13:12:53;100504.06;;;37.62;47.07
74230;BME280;62589;12.568;99.958;2023-05-20T13:15:19;100500.91;;;37.60;47.28
74230;BME280;62589;12.568;99.958;2023-05-20T13:17:45;100505.31;;;37.61;47.19
74230;BME280;62589;12.568;99.958;2023-05-20T13:20:12;100504.06;;;37.62;46.89
74230;BME280;62589;12.568;99.958;2023-05-20T13:22:38;100502.03;;;37.63;46.26
74230;BME280;62589;12.568;99.958;2023-05-20T13:25:05;100509.66;;;37.62;46.13
74230;BME280;62589;12.568;99.958;2023-05-20T13:27:32;100520.88;;;37.62;46.47
74230;BME280;62589;12.568;99.958;2023-05-20T13:29:59;100530.84;;;37.63;46.55